Orbital elements of COSMOS 1275 DEB
| Launched | 3 June 1981 |
| Flight ended | – |
| Launch site | Plesetsk Missile and Space Complex, Russia |
| Owner | Commonwealth of Independent States (former USSR) |
| NORAD ID | 17640 |
| Date fetched |
Epoch osculation |
Inc. [°] |
Ecc. | RA asc node [hr] |
Arg Peri. [°] |
Mean anom [°] |
Mean motion [rev/day] |
Abs. mag |
| Date fetched |
Epoch osculation |
Inc. [°] |
Ecc. | RA asc node [hr] |
Arg Peri. [°] |
Mean anom [°] |
Mean motion [rev/day] |
Abs. mag |
| 2026 May 08 17:57 | 2026 May 04 15:36:15 | 82.9131 | 0.00229 | 1.1922 | 318.3101 | 41.6344 | 14.34991 | – |
| 2026 May 07 17:58 | 2026 May 04 15:36:15 | 82.9131 | 0.00229 | 1.1922 | 318.3101 | 41.6344 | 14.34991 | – |
| 2026 May 06 17:57 | 2026 May 04 15:36:15 | 82.9131 | 0.00229 | 1.1922 | 318.3101 | 41.6344 | 14.34991 | – |
| 2026 May 05 17:57 | 2026 May 04 15:36:15 | 82.9131 | 0.00229 | 1.1922 | 318.3101 | 41.6344 | 14.34991 | – |
| 2026 May 04 17:57 | 2026 Apr 29 23:28:47 | 82.9140 | 0.00238 | 1.4482 | 332.4000 | 41.6344 | 14.34991 | – |
| 2026 May 03 17:57 | 2026 Apr 29 23:28:47 | 82.9140 | 0.00238 | 1.4482 | 332.4000 | 41.6344 | 14.34991 | – |
| 2026 May 02 17:57 | 2026 Apr 29 23:28:47 | 82.9140 | 0.00238 | 1.4482 | 332.4000 | 41.6344 | 14.34991 | – |
| 2026 May 01 17:56 | 2026 Apr 29 23:28:47 | 82.9140 | 0.00238 | 1.4482 | 332.4000 | 41.6344 | 14.34991 | – |
| 2026 Apr 30 17:56 | 2026 Apr 29 23:28:47 | 82.9140 | 0.00238 | 1.4482 | 332.4000 | 41.6344 | 14.34991 | – |
| 2026 Apr 29 17:57 | 2026 Apr 24 04:34:33 | 82.9128 | 0.00247 | 1.7652 | 349.2300 | 41.6344 | 14.34991 | – |
| 2026 Apr 28 17:56 | 2026 Apr 24 04:34:33 | 82.9128 | 0.00247 | 1.7652 | 349.2300 | 41.6344 | 14.34991 | – |
| 2026 Apr 27 17:58 | 2026 Apr 24 04:34:33 | 82.9128 | 0.00247 | 1.7652 | 349.2300 | 41.6344 | 14.34991 | – |
| 2026 Apr 26 17:58 | 2026 Apr 24 04:34:33 | 82.9128 | 0.00247 | 1.7652 | 349.2300 | 41.6344 | 14.34991 | – |
| 2026 Apr 25 17:58 | 2026 Apr 24 04:34:33 | 82.9128 | 0.00247 | 1.7652 | 349.2300 | 41.6344 | 14.34991 | – |
| 2026 Apr 24 17:59 | 2026 Apr 24 04:34:33 | 82.9128 | 0.00247 | 1.7652 | 349.2300 | 41.6344 | 14.34991 | – |
| 2026 Apr 23 17:57 | 2026 Apr 19 12:26:45 | 82.9134 | 0.00253 | 2.0212 | 2.5306 | 41.6344 | 14.34991 | – |
| 2026 Apr 22 17:57 | 2026 Apr 19 12:26:45 | 82.9134 | 0.00253 | 2.0212 | 2.5306 | 41.6344 | 14.34991 | – |
| 2026 Apr 21 17:57 | 2026 Apr 19 12:26:45 | 82.9134 | 0.00253 | 2.0212 | 2.5306 | 41.6344 | 14.34991 | – |
| 2026 Apr 20 17:57 | 2026 Apr 19 12:26:45 | 82.9134 | 0.00253 | 2.0212 | 2.5306 | 41.6344 | 14.34991 | – |
| 2026 Apr 19 17:58 | 2026 Apr 19 12:26:45 | 82.9134 | 0.00253 | 2.0212 | 2.5306 | 41.6344 | 14.34991 | – |
| 2026 Apr 18 17:56 | 2026 Apr 12 19:46:43 | 82.9132 | 0.00260 | 2.3879 | 21.4252 | 41.6344 | 14.34991 | – |
| 2026 Apr 16 17:57 | 2026 Apr 12 19:46:43 | 82.9132 | 0.00260 | 2.3879 | 21.4252 | 41.6344 | 14.34991 | – |
| 2026 Apr 14 17:57 | 2026 Apr 12 19:46:43 | 82.9132 | 0.00260 | 2.3879 | 21.4252 | 41.6344 | 14.34991 | – |
| 2026 Apr 13 17:57 | 2026 Apr 12 19:46:43 | 82.9132 | 0.00260 | 2.3879 | 21.4252 | 41.6344 | 14.34991 | – |
| 2026 Apr 12 17:57 | 2026 Apr 07 05:53:09 | 82.9122 | 0.00263 | 2.6935 | 37.2036 | 41.6344 | 14.34991 | – |
| 2026 Apr 11 17:57 | 2026 Apr 07 05:53:09 | 82.9122 | 0.00263 | 2.6935 | 37.2036 | 41.6344 | 14.34991 | – |